Terminal Aerodrome Forecast
Issued by NWS Paducah, KY

Home | Current Version | Previous Version | Text Only | Print | Product List | Glossary On
Versions: 1 2 3 4 5 6 7 8 9 10 11 12 13 14 15 16
000
FTUS43 KPAH 291047 AAA
TAFEVV
TAF AMD
KEVV 291047Z 2911/3006 22003KT P6SM VCTS SCT040CB SCT250
      TEMPO 2911/2913 3SM TSRA BR BKN035CB
     FM291500 25005KT P6SM FEW025
     FM291700 29006KT P6SM SCT035
     FM292300 33007KT P6SM FEW040=

USA.gov is the U.S. government's official web portal to all federal, state and local government web resources and services.